sensor_id;sensor_type;location;lat;lon;timestamp;temperature;humidity
530;DHT22;251;48.704;9.210;2022-12-18T00:01:58;-9.70;51.70
530;DHT22;251;48.704;9.210;2022-12-18T00:04:32;-9.50;51.40
530;DHT22;251;48.704;9.210;2022-12-18T00:07:04;-9.80;51.50
530;DHT22;251;48.704;9.210;2022-12-18T00:09:41;-9.80;50.40
530;DHT22;251;48.704;9.210;2022-12-18T00:12:13;-10.00;51.60
530;DHT22;251;48.704;9.210;2022-12-18T00:14:57;-9.90;53.30
530;DHT22;251;48.704;9.210;2022-12-18T00:17:28;-9.80;53.40
530;DHT22;251;48.704;9.210;2022-12-18T00:20:25;-9.70;53.30
530;DHT22;251;48.704;9.210;2022-12-18T00:22:53;-9.70;52.50
530;DHT22;251;48.704;9.210;2022-12-18T00:25:29;-10.00;51.40
530;DHT22;251;48.704;9.210;2022-12-18T00:28:13;-9.90;51.70
530;DHT22;251;48.704;9.210;2022-12-18T00:30:43;-9.90;52.10
530;DHT22;251;48.704;9.210;2022-12-18T00:33:13;-9.90;52.10
530;DHT22;251;48.704;9.210;2022-12-18T00:35:46;-9.90;53.10
530;DHT22;251;48.704;9.210;2022-12-18T00:38:20;-9.90;53.40
530;DHT22;251;48.704;9.210;2022-12-18T00:40:54;-10.00;53.60
530;DHT22;251;48.704;9.210;2022-12-18T00:43:31;-9.90;52.90
530;DHT22;251;48.704;9.210;2022-12-18T00:46:08;-9.90;52.10
530;DHT22;251;48.704;9.210;2022-12-18T00:48:40;-10.00;53.00
530;DHT22;251;48.704;9.210;2022-12-18T00:51:20;-10.10;53.00
530;DHT22;251;48.704;9.210;2022-12-18T00:53:53;-9.90;53.00
530;DHT22;251;48.704;9.210;2022-12-18T00:56:42;-10.00;52.70
530;DHT22;251;48.704;9.210;2022-12-18T00:59:19;-9.90;53.60
530;DHT22;251;48.704;9.210;2022-12-18T01:01:52;-9.90;54.60
530;DHT22;251;48.704;9.210;2022-12-18T01:04:21;-9.90;55.00
530;DHT22;251;48.704;9.210;2022-12-18T01:06:51;-9.90;54.70
530;DHT22;251;48.704;9.210;2022-12-18T01:09:24;-9.80;54.90
530;DHT22;251;48.704;9.210;2022-12-18T01:11:54;-9.80;54.90
530;DHT22;251;48.704;9.210;2022-12-18T01:14:26;-9.80;54.70
530;DHT22;251;48.704;9.210;2022-12-18T01:16:56;-9.90;55.50
530;DHT22;251;48.704;9.210;2022-12-18T01:19:30;-9.90;56.70
530;DHT22;251;48.704;9.210;2022-12-18T01:21:57;-9.70;57.90
530;DHT22;251;48.704;9.210;2022-12-18T01:24:24;-9.70;58.90
530;DHT22;251;48.704;9.210;2022-12-18T01:26:52;-9.50;60.10
530;DHT22;251;48.704;9.210;2022-12-18T01:29:19;-9.60;57.70
530;DHT22;251;48.704;9.210;2022-12-18T01:31:46;-9.50;56.90
530;DHT22;251;48.704;9.210;2022-12-18T01:34:13;-9.50;58.00
530;DHT22;251;48.704;9.210;2022-12-18T01:36:42;-9.40;58.70
530;DHT22;251;48.704;9.210;2022-12-18T01:39:12;-9.60;58.80
530;DHT22;251;48.704;9.210;2022-12-18T01:41:41;-9.50;60.00
530;DHT22;251;48.704;9.210;2022-12-18T01:47:32;-9.50;61.90
530;DHT22;251;48.704;9.210;2022-12-18T01:50:02;-9.40;61.70
530;DHT22;251;48.704;9.210;2022-12-18T01:52:32;-9.30;62.30
530;DHT22;251;48.704;9.210;2022-12-18T01:55:00;-9.10;61.70
530;DHT22;251;48.704;9.210;2022-12-18T01:57:29;-9.30;61.30
530;DHT22;251;48.704;9.210;2022-12-18T01:59:59;-9.20;61.80
530;DHT22;251;48.704;9.210;2022-12-18T02:02:27;-9.20;61.50
530;DHT22;251;48.704;9.210;2022-12-18T02:04:55;-9.10;61.50
530;DHT22;251;48.704;9.210;2022-12-18T02:07:27;-9.30;61.20
530;DHT22;251;48.704;9.210;2022-12-18T02:10:00;-9.20;61.70
530;DHT22;251;48.704;9.210;2022-12-18T02:12:34;-9.20;61.80
530;DHT22;251;48.704;9.210;2022-12-18T02:15:06;-9.20;60.20
530;DHT22;251;48.704;9.210;2022-12-18T02:17:41;-9.20;59.30
530;DHT22;251;48.704;9.210;2022-12-18T02:20:16;-9.30;59.50
530;DHT22;251;48.704;9.210;2022-12-18T02:22:51;-9.30;58.70
530;DHT22;251;48.704;9.210;2022-12-18T02:25:35;-9.30;57.60
530;DHT22;251;48.704;9.210;2022-12-18T02:28:12;-9.30;56.90
530;DHT22;251;48.704;9.210;2022-12-18T02:30:41;-9.40;56.60
530;DHT22;251;48.704;9.210;2022-12-18T02:33:09;-9.50;56.80
530;DHT22;251;48.704;9.210;2022-12-18T02:35:38;-9.40;56.40
530;DHT22;251;48.704;9.210;2022-12-18T02:38:07;-9.40;56.60
530;DHT22;251;48.704;9.210;2022-12-18T02:40:36;-9.40;56.50
530;DHT22;251;48.704;9.210;2022-12-18T02:43:09;-9.60;56.00
530;DHT22;251;48.704;9.210;2022-12-18T02:45:46;-9.50;56.80
530;DHT22;251;48.704;9.210;2022-12-18T02:48:15;-9.50;57.30
530;DHT22;251;48.704;9.210;2022-12-18T02:50:47;-9.70;56.90
530;DHT22;251;48.704;9.210;2022-12-18T02:53:26;-9.60;56.70
530;DHT22;251;48.704;9.210;2022-12-18T02:56:01;-9.60;56.80
530;DHT22;251;48.704;9.210;2022-12-18T02:58:34;-9.40;56.80
530;DHT22;251;48.704;9.210;2022-12-18T03:01:16;-9.80;56.30
530;DHT22;251;48.704;9.210;2022-12-18T03:03:47;-9.40;56.80
530;DHT22;251;48.704;9.210;2022-12-18T03:06:21;-9.50;57.10
530;DHT22;251;48.704;9.210;2022-12-18T03:08:56;-9.60;56.10
530;DHT22;251;48.704;9.210;2022-12-18T03:11:27;-9.60;55.70
530;DHT22;251;48.704;9.210;2022-12-18T03:14:13;-9.60;56.30
530;DHT22;251;48.704;9.210;2022-12-18T03:16:43;-9.50;57.00
530;DHT22;251;48.704;9.210;2022-12-18T03:19:15;-9.60;56.50
530;DHT22;251;48.704;9.210;2022-12-18T03:21:45;-9.40;56.00
530;DHT22;251;48.704;9.210;2022-12-18T03:24:17;-9.60;55.20
530;DHT22;251;48.704;9.210;2022-12-18T03:26:48;-9.60;55.00
530;DHT22;251;48.704;9.210;2022-12-18T03:29:21;-9.80;54.70
530;DHT22;251;48.704;9.210;2022-12-18T03:31:53;-9.60;54.10
530;DHT22;251;48.704;9.210;2022-12-18T03:34:25;-9.70;54.00
530;DHT22;251;48.704;9.210;2022-12-18T03:36:53;-9.80;53.70
530;DHT22;251;48.704;9.210;2022-12-18T03:39:23;-9.70;54.20
530;DHT22;251;48.704;9.210;2022-12-18T03:42:01;-9.70;54.40
530;DHT22;251;48.704;9.210;2022-12-18T03:44:47;-10.10;54.00
530;DHT22;251;48.704;9.210;2022-12-18T03:47:23;-9.80;54.90
530;DHT22;251;48.704;9.210;2022-12-18T03:49:57;-9.80;54.20
530;DHT22;251;48.704;9.210;2022-12-18T03:52:33;-9.80;54.60
530;DHT22;251;48.704;9.210;2022-12-18T03:55:03;-9.90;54.70
530;DHT22;251;48.704;9.210;2022-12-18T03:57:33;-9.90;54.10
530;DHT22;251;48.704;9.210;2022-12-18T04:00:07;-10.00;52.70
530;DHT22;251;48.704;9.210;2022-12-18T04:02:51;-10.00;52.40
530;DHT22;251;48.704;9.210;2022-12-18T04:05:25;-10.20;52.00
530;DHT22;251;48.704;9.210;2022-12-18T04:07:53;-10.10;52.40
530;DHT22;251;48.704;9.210;2022-12-18T04:10:21;-10.10;52.10
530;DHT22;251;48.704;9.210;2022-12-18T04:12:48;-10.20;53.50
530;DHT22;251;48.704;9.210;2022-12-18T04:15:16;-10.40;53.60
530;DHT22;251;48.704;9.210;2022-12-18T04:17:48;-10.10;54.20
530;DHT22;251;48.704;9.210;2022-12-18T04:20:18;-10.30;53.40
530;DHT22;251;48.704;9.210;2022-12-18T04:22:46;-10.40;52.50
530;DHT22;251;48.704;9.210;2022-12-18T04:25:13;-10.30;52.20
530;DHT22;251;48.704;9.210;2022-12-18T04:31:41;-10.60;50.80
530;DHT22;251;48.704;9.210;2022-12-18T04:34:09;-10.60;51.50
530;DHT22;251;48.704;9.210;2022-12-18T04:36:42;-10.60;51.60
530;DHT22;251;48.704;9.210;2022-12-18T04:39:09;-10.60;51.30
530;DHT22;251;48.704;9.210;2022-12-18T04:41:36;-10.80;51.10
530;DHT22;251;48.704;9.210;2022-12-18T04:44:04;-10.90;50.10
530;DHT22;251;48.704;9.210;2022-12-18T04:46:31;-10.90;50.20
530;DHT22;251;48.704;9.210;2022-12-18T04:48:59;-10.80;49.70
530;DHT22;251;48.704;9.210;2022-12-18T04:51:26;-10.80;50.00
530;DHT22;251;48.704;9.210;2022-12-18T04:53:53;-11.00;50.10
530;DHT22;251;48.704;9.210;2022-12-18T04:56:20;-10.90;50.70
530;DHT22;251;48.704;9.210;2022-12-18T04:58:47;-11.10;51.00
530;DHT22;251;48.704;9.210;2022-12-18T05:01:15;-10.90;51.60
530;DHT22;251;48.704;9.210;2022-12-18T05:03:42;-11.30;50.90
530;DHT22;251;48.704;9.210;2022-12-18T05:06:11;-10.90;51.20
530;DHT22;251;48.704;9.210;2022-12-18T05:08:37;-11.20;52.10
530;DHT22;251;48.704;9.210;2022-12-18T05:11:06;-11.00;52.10
530;DHT22;251;48.704;9.210;2022-12-18T05:28:43;-11.10;51.70
530;DHT22;251;48.704;9.210;2022-12-18T05:31:10;-11.20;50.00
530;DHT22;251;48.704;9.210;2022-12-18T05:33:37;-11.10;50.10
530;DHT22;251;48.704;9.210;2022-12-18T05:36:06;-11.20;50.40
530;DHT22;251;48.704;9.210;2022-12-18T05:38:35;-11.20;51.00
530;DHT22;251;48.704;9.210;2022-12-18T05:41:02;-11.30;50.50
530;DHT22;251;48.704;9.210;2022-12-18T05:43:29;-11.30;50.70
530;DHT22;251;48.704;9.210;2022-12-18T05:45:58;-11.30;50.50
530;DHT22;251;48.704;9.210;2022-12-18T05:48:29;-11.30;51.20
530;DHT22;251;48.704;9.210;2022-12-18T05:50:56;-11.40;50.40
530;DHT22;251;48.704;9.210;2022-12-18T05:53:29;-11.40;49.40
530;DHT22;251;48.704;9.210;2022-12-18T05:56:00;-11.80;48.10
530;DHT22;251;48.704;9.210;2022-12-18T06:02:16;-11.70;48.60
530;DHT22;251;48.704;9.210;2022-12-18T06:04:43;-11.60;49.10
530;DHT22;251;48.704;9.210;2022-12-18T06:07:09;-11.80;49.50
530;DHT22;251;48.704;9.210;2022-12-18T06:09:36;-11.70;49.20
530;DHT22;251;48.704;9.210;2022-12-18T06:12:03;-12.00;49.30
530;DHT22;251;48.704;9.210;2022-12-18T06:14:30;-11.80;50.30
530;DHT22;251;48.704;9.210;2022-12-18T06:16:57;-11.90;49.80
530;DHT22;251;48.704;9.210;2022-12-18T06:19:25;-12.10;49.00
530;DHT22;251;48.704;9.210;2022-12-18T06:21:52;-12.00;49.10
530;DHT22;251;48.704;9.210;2022-12-18T06:24:19;-11.70;49.40
530;DHT22;251;48.704;9.210;2022-12-18T06:26:46;-11.80;50.20
530;DHT22;251;48.704;9.210;2022-12-18T06:29:12;-11.80;49.40
530;DHT22;251;48.704;9.210;2022-12-18T06:31:39;-11.80;49.50
530;DHT22;251;48.704;9.210;2022-12-18T06:34:06;-11.90;47.60
530;DHT22;251;48.704;9.210;2022-12-18T06:36:34;-12.00;47.60
530;DHT22;251;48.704;9.210;2022-12-18T06:39:01;-12.40;47.10
530;DHT22;251;48.704;9.210;2022-12-18T06:41:28;-12.20;47.80
530;DHT22;251;48.704;9.210;2022-12-18T06:43:55;-12.10;49.70
530;DHT22;251;48.704;9.210;2022-12-18T06:46:22;-12.40;49.00
530;DHT22;251;48.704;9.210;2022-12-18T06:48:49;-12.00;49.90
530;DHT22;251;48.704;9.210;2022-12-18T06:51:18;-12.00;50.50
530;DHT22;251;48.704;9.210;2022-12-18T06:53:47;-12.40;49.30
530;DHT22;251;48.704;9.210;2022-12-18T06:56:13;-12.00;49.30
530;DHT22;251;48.704;9.210;2022-12-18T06:58:40;-12.20;48.40
530;DHT22;251;48.704;9.210;2022-12-18T07:01:10;-12.40;48.40
530;DHT22;251;48.704;9.210;2022-12-18T07:03:37;-12.20;48.00
530;DHT22;251;48.704;9.210;2022-12-18T07:06:05;-12.40;48.00
530;DHT22;251;48.704;9.210;2022-12-18T07:08:32;-12.50;47.80
530;DHT22;251;48.704;9.210;2022-12-18T07:11:03;-12.20;48.40
530;DHT22;251;48.704;9.210;2022-12-18T07:13:30;-12.20;48.10
530;DHT22;251;48.704;9.210;2022-12-18T07:16:03;-12.60;47.80
530;DHT22;251;48.704;9.210;2022-12-18T07:18:30;-12.40;47.90
530;DHT22;251;48.704;9.210;2022-12-18T07:20:57;-12.30;48.40
530;DHT22;251;48.704;9.210;2022-12-18T07:23:24;-12.30;48.90
530;DHT22;251;48.704;9.210;2022-12-18T07:25:50;-12.60;48.00
530;DHT22;251;48.704;9.210;2022-12-18T07:28:19;-12.40;48.50
530;DHT22;251;48.704;9.210;2022-12-18T07:30:45;-12.60;48.50
530;DHT22;251;48.704;9.210;2022-12-18T07:33:12;-12.30;48.80
530;DHT22;251;48.704;9.210;2022-12-18T07:35:39;-12.70;48.80
530;DHT22;251;48.704;9.210;2022-12-18T07:38:06;-12.60;48.50
530;DHT22;251;48.704;9.210;2022-12-18T07:40:32;-12.60;48.60
530;DHT22;251;48.704;9.210;2022-12-18T07:42:59;-12.40;49.50
530;DHT22;251;48.704;9.210;2022-12-18T07:45:27;-12.20;50.70
530;DHT22;251;48.704;9.210;2022-12-18T07:47:55;-12.30;49.80
530;DHT22;251;48.704;9.210;2022-12-18T07:50:22;-12.50;50.50
530;DHT22;251;48.704;9.210;2022-12-18T07:52:49;-12.60;50.50
530;DHT22;251;48.704;9.210;2022-12-18T07:55:16;-12.10;51.70
530;DHT22;251;48.704;9.210;2022-12-18T07:57:43;-12.10;51.60
530;DHT22;251;48.704;9.210;2022-12-18T08:00:11;-12.30;51.20
530;DHT22;251;48.704;9.210;2022-12-18T08:02:40;-12.10;52.10
530;DHT22;251;48.704;9.210;2022-12-18T08:05:07;-12.20;51.50
530;DHT22;251;48.704;9.210;2022-12-18T08:07:34;-12.00;51.90
530;DHT22;251;48.704;9.210;2022-12-18T08:10:01;-11.90;51.80
530;DHT22;251;48.704;9.210;2022-12-18T08:12:27;-11.80;51.70
530;DHT22;251;48.704;9.210;2022-12-18T08:14:54;-12.10;51.10
530;DHT22;251;48.704;9.210;2022-12-18T08:17:21;-12.20;51.90
530;DHT22;251;48.704;9.210;2022-12-18T08:19:49;-11.80;52.50
530;DHT22;251;48.704;9.210;2022-12-18T08:22:16;-11.70;53.80
530;DHT22;251;48.704;9.210;2022-12-18T08:24:43;-11.90;53.20
530;DHT22;251;48.704;9.210;2022-12-18T08:27:09;-11.70;54.50
530;DHT22;251;48.704;9.210;2022-12-18T08:29:37;-11.50;55.10
530;DHT22;251;48.704;9.210;2022-12-18T08:32:04;-11.60;54.80
530;DHT22;251;48.704;9.210;2022-12-18T08:34:30;-11.40;54.50
530;DHT22;251;48.704;9.210;2022-12-18T08:36:59;-11.40;55.70
530;DHT22;251;48.704;9.210;2022-12-18T08:39:25;-11.30;55.00
530;DHT22;251;48.704;9.210;2022-12-18T08:41:55;-11.30;54.90
530;DHT22;251;48.704;9.210;2022-12-18T08:44:39;-11.10;55.50
530;DHT22;251;48.704;9.210;2022-12-18T08:47:07;-11.00;55.80
530;DHT22;251;48.704;9.210;2022-12-18T08:49:34;-11.00;56.20
530;DHT22;251;48.704;9.210;2022-12-18T08:52:03;-11.00;56.20
530;DHT22;251;48.704;9.210;2022-12-18T08:54:30;-10.90;57.30
530;DHT22;251;48.704;9.210;2022-12-18T08:56:57;-10.90;58.00
530;DHT22;251;48.704;9.210;2022-12-18T08:59:24;-11.00;58.60
530;DHT22;251;48.704;9.210;2022-12-18T09:01:54;-11.00;59.30
530;DHT22;251;48.704;9.210;2022-12-18T09:04:21;-10.70;59.60
530;DHT22;251;48.704;9.210;2022-12-18T09:06:51;-10.60;60.30
530;DHT22;251;48.704;9.210;2022-12-18T09:09:19;-10.50;59.80
530;DHT22;251;48.704;9.210;2022-12-18T09:11:46;-10.60;60.10
530;DHT22;251;48.704;9.210;2022-12-18T09:14:13;-10.20;60.50
530;DHT22;251;48.704;9.210;2022-12-18T09:16:40;-10.30;60.60
530;DHT22;251;48.704;9.210;2022-12-18T09:19:08;-10.00;61.40
530;DHT22;251;48.704;9.210;2022-12-18T09:21:37;-10.10;61.30
530;DHT22;251;48.704;9.210;2022-12-18T09:24:05;-10.20;60.90
530;DHT22;251;48.704;9.210;2022-12-18T09:26:33;-10.00;61.20
530;DHT22;251;48.704;9.210;2022-12-18T09:29:00;-9.70;61.40
530;DHT22;251;48.704;9.210;2022-12-18T09:31:28;-9.90;61.70
530;DHT22;251;48.704;9.210;2022-12-18T09:33:55;-9.90;61.80
530;DHT22;251;48.704;9.210;2022-12-18T09:36:22;-9.70;61.80
530;DHT22;251;48.704;9.210;2022-12-18T09:38:49;-9.80;62.30
530;DHT22;251;48.704;9.210;2022-12-18T09:44:13;-9.60;64.30
530;DHT22;251;48.704;9.210;2022-12-18T09:46:45;-9.50;63.80
530;DHT22;251;48.704;9.210;2022-12-18T09:49:16;-9.60;63.90
530;DHT22;251;48.704;9.210;2022-12-18T09:51:48;-9.40;63.60
530;DHT22;251;48.704;9.210;2022-12-18T09:54:20;-9.30;64.70
530;DHT22;251;48.704;9.210;2022-12-18T09:56:47;-9.30;65.20
530;DHT22;251;48.704;9.210;2022-12-18T09:59:22;-9.10;65.50
530;DHT22;251;48.704;9.210;2022-12-18T10:01:50;-9.10;66.30
530;DHT22;251;48.704;9.210;2022-12-18T10:04:18;-9.10;67.00
530;DHT22;251;48.704;9.210;2022-12-18T10:06:50;-9.10;66.70
530;DHT22;251;48.704;9.210;2022-12-18T10:09:26;-8.90;68.00
530;DHT22;251;48.704;9.210;2022-12-18T10:12:01;-8.90;66.80
530;DHT22;251;48.704;9.210;2022-12-18T10:14:36;-8.80;67.20
530;DHT22;251;48.704;9.210;2022-12-18T10:17:13;-8.80;67.50
530;DHT22;251;48.704;9.210;2022-12-18T10:19:46;-8.60;68.50
530;DHT22;251;48.704;9.210;2022-12-18T10:22:25;-8.70;68.30
530;DHT22;251;48.704;9.210;2022-12-18T10:24:59;-8.60;68.40
530;DHT22;251;48.704;9.210;2022-12-18T10:27:30;-8.50;68.70
530;DHT22;251;48.704;9.210;2022-12-18T10:29:58;-8.40;68.40
530;DHT22;251;48.704;9.210;2022-12-18T10:32:29;-8.30;68.50
530;DHT22;251;48.704;9.210;2022-12-18T10:34:57;-8.40;68.80
530;DHT22;251;48.704;9.210;2022-12-18T10:37:26;-8.40;69.40
530;DHT22;251;48.704;9.210;2022-12-18T10:40:09;-8.20;70.60
530;DHT22;251;48.704;9.210;2022-12-18T10:42:36;-7.90;71.70
530;DHT22;251;48.704;9.210;2022-12-18T10:45:13;-8.10;71.80
530;DHT22;251;48.704;9.210;2022-12-18T10:47:44;-8.00;71.80
530;DHT22;251;48.704;9.210;2022-12-18T10:50:23;-7.60;72.30
530;DHT22;251;48.704;9.210;2022-12-18T10:52:57;-7.80;72.50
530;DHT22;251;48.704;9.210;2022-12-18T10:55:27;-7.80;72.90
530;DHT22;251;48.704;9.210;2022-12-18T10:58:13;-7.50;73.40
530;DHT22;251;48.704;9.210;2022-12-18T11:00:43;-7.50;74.60
530;DHT22;251;48.704;9.210;2022-12-18T11:03:29;-7.60;75.00
530;DHT22;251;48.704;9.210;2022-12-18T11:06:02;-7.30;75.40
530;DHT22;251;48.704;9.210;2022-12-18T11:08:29;-7.40;75.50
530;DHT22;251;48.704;9.210;2022-12-18T11:10:56;-7.30;76.10
530;DHT22;251;48.704;9.210;2022-12-18T11:13:25;-6.90;77.00
530;DHT22;251;48.704;9.210;2022-12-18T11:15:54;-7.00;77.60
530;DHT22;251;48.704;9.210;2022-12-18T11:18:26;-6.90;78.40
530;DHT22;251;48.704;9.210;2022-12-18T11:20:55;-6.40;79.30
530;DHT22;251;48.704;9.210;2022-12-18T11:23:24;-6.30;81.10
530;DHT22;251;48.704;9.210;2022-12-18T11:25:53;-6.10;82.00
530;DHT22;251;48.704;9.210;2022-12-18T11:28:38;-5.90;82.10
530;DHT22;251;48.704;9.210;2022-12-18T11:31:24;-5.70;82.30
530;DHT22;251;48.704;9.210;2022-12-18T11:33:56;-6.10;80.40
530;DHT22;251;48.704;9.210;2022-12-18T11:36:26;-5.60;80.40
530;DHT22;251;48.704;9.210;2022-12-18T11:38:55;-5.70;77.80
530;DHT22;251;48.704;9.210;2022-12-18T11:41:28;-5.50;75.60
530;DHT22;251;48.704;9.210;2022-12-18T11:44:14;-5.90;73.70
530;DHT22;251;48.704;9.210;2022-12-18T11:46:48;-5.40;73.70
530;DHT22;251;48.704;9.210;2022-12-18T11:49:21;-5.50;73.20
530;DHT22;251;48.704;9.210;2022-12-18T11:51:53;-5.60;73.60
530;DHT22;251;48.704;9.210;2022-12-18T11:54:22;-5.30;73.30
530;DHT22;251;48.704;9.210;2022-12-18T11:56:52;-5.30;73.10
530;DHT22;251;48.704;9.210;2022-12-18T11:59:28;-5.30;74.20
530;DHT22;251;48.704;9.210;2022-12-18T12:02:11;-5.10;73.80
530;DHT22;251;48.704;9.210;2022-12-18T12:04:47;-5.30;73.50
530;DHT22;251;48.704;9.210;2022-12-18T12:07:23;-5.00;72.30
530;DHT22;251;48.704;9.210;2022-12-18T12:09:58;-5.00;71.00
530;DHT22;251;48.704;9.210;2022-12-18T12:12:36;-5.00;70.60
530;DHT22;251;48.704;9.210;2022-12-18T12:15:22;-4.90;70.10
530;DHT22;251;48.704;9.210;2022-12-18T12:17:58;-4.80;70.80
530;DHT22;251;48.704;9.210;2022-12-18T12:20:39;-4.80;70.10
530;DHT22;251;48.704;9.210;2022-12-18T12:23:14;-4.80;70.00
530;DHT22;251;48.704;9.210;2022-12-18T12:25:46;-4.90;70.00
530;DHT22;251;48.704;9.210;2022-12-18T12:28:25;-4.80;70.40
530;DHT22;251;48.704;9.210;2022-12-18T12:30:58;-4.80;70.90
530;DHT22;251;48.704;9.210;2022-12-18T12:33:37;-4.90;71.60
530;DHT22;251;48.704;9.210;2022-12-18T12:36:13;-4.80;71.80
530;DHT22;251;48.704;9.210;2022-12-18T12:38:46;-4.50;71.70
530;DHT22;251;48.704;9.210;2022-12-18T12:41:18;-4.60;71.80
530;DHT22;251;48.704;9.210;2022-12-18T12:44:02;-4.70;71.20
530;DHT22;251;48.704;9.210;2022-12-18T12:46:32;-4.50;70.50
530;DHT22;251;48.704;9.210;2022-12-18T12:49:03;-4.70;70.80
530;DHT22;251;48.704;9.210;2022-12-18T12:51:34;-4.60;71.30
530;DHT22;251;48.704;9.210;2022-12-18T12:54:04;-4.40;71.80
530;DHT22;251;48.704;9.210;2022-12-18T12:56:37;-4.50;71.90
530;DHT22;251;48.704;9.210;2022-12-18T12:59:11;-4.50;71.90
530;DHT22;251;48.704;9.210;2022-12-18T13:01:46;-4.50;72.20
530;DHT22;251;48.704;9.210;2022-12-18T13:04:23;-4.60;72.80
530;DHT22;251;48.704;9.210;2022-12-18T13:07:05;-4.30;72.90
530;DHT22;251;48.704;9.210;2022-12-18T13:09:33;-4.40;72.40
530;DHT22;251;48.704;9.210;2022-12-18T13:12:08;-4.40;72.40
530;DHT22;251;48.704;9.210;2022-12-18T13:15:12;-4.40;72.80
530;DHT22;251;48.704;9.210;2022-12-18T13:17:39;-4.30;72.10
530;DHT22;251;48.704;9.210;2022-12-18T13:20:09;-4.20;71.80
530;DHT22;251;48.704;9.210;2022-12-18T13:22:38;-4.10;71.70
530;DHT22;251;48.704;9.210;2022-12-18T13:25:29;-4.20;71.40
530;DHT22;251;48.704;9.210;2022-12-18T13:28:05;-4.20;71.60
530;DHT22;251;48.704;9.210;2022-12-18T13:30:51;-4.30;72.10
530;DHT22;251;48.704;9.210;2022-12-18T13:33:45;-4.20;72.30
530;DHT22;251;48.704;9.210;2022-12-18T13:36:28;-3.90;72.80
530;DHT22;251;48.704;9.210;2022-12-18T13:39:21;-4.00;73.00
530;DHT22;251;48.704;9.210;2022-12-18T13:41:51;-4.00;73.10
530;DHT22;251;48.704;9.210;2022-12-18T13:44:29;-4.00;73.30
530;DHT22;251;48.704;9.210;2022-12-18T13:46:57;-3.90;73.60
530;DHT22;251;48.704;9.210;2022-12-18T13:49:27;-3.70;73.50
530;DHT22;251;48.704;9.210;2022-12-18T13:51:58;-3.90;73.30
530;DHT22;251;48.704;9.210;2022-12-18T13:54:29;-3.90;73.10
530;DHT22;251;48.704;9.210;2022-12-18T13:56:56;-3.90;72.70
530;DHT22;251;48.704;9.210;2022-12-18T13:59:25;-3.80;71.90
530;DHT22;251;48.704;9.210;2022-12-18T14:01:54;-3.80;71.40
530;DHT22;251;48.704;9.210;2022-12-18T14:04:25;-3.80;70.90
530;DHT22;251;48.704;9.210;2022-12-18T14:06:55;-3.80;70.70
530;DHT22;251;48.704;9.210;2022-12-18T14:09:27;-3.90;70.40
530;DHT22;251;48.704;9.210;2022-12-18T14:11:56;-3.70;70.10
530;DHT22;251;48.704;9.210;2022-12-18T14:14:37;-3.80;69.90
530;DHT22;251;48.704;9.210;2022-12-18T14:17:09;-3.90;68.60
530;DHT22;251;48.704;9.210;2022-12-18T14:19:36;-3.90;68.60
530;DHT22;251;48.704;9.210;2022-12-18T14:22:03;-3.90;69.10
530;DHT22;251;48.704;9.210;2022-12-18T14:24:32;-3.80;69.40
530;DHT22;251;48.704;9.210;2022-12-18T14:27:13;-3.80;69.30
530;DHT22;251;48.704;9.210;2022-12-18T14:29:46;-3.90;67.00
530;DHT22;251;48.704;9.210;2022-12-18T14:32:15;-3.90;69.40
530;DHT22;251;48.704;9.210;2022-12-18T14:34:43;-3.70;69.70
530;DHT22;251;48.704;9.210;2022-12-18T14:37:10;-3.70;70.40
530;DHT22;251;48.704;9.210;2022-12-18T14:39:39;-3.80;70.00
530;DHT22;251;48.704;9.210;2022-12-18T14:42:10;-3.80;69.80
530;DHT22;251;48.704;9.210;2022-12-18T14:44:37;-3.80;69.20
530;DHT22;251;48.704;9.210;2022-12-18T14:47:04;-3.80;69.30
530;DHT22;251;48.704;9.210;2022-12-18T14:49:32;-3.80;69.30
530;DHT22;251;48.704;9.210;2022-12-18T14:52:02;-3.90;69.40
530;DHT22;251;48.704;9.210;2022-12-18T14:54:30;-4.20;69.60
530;DHT22;251;48.704;9.210;2022-12-18T14:57:01;-3.80;70.30
530;DHT22;251;48.704;9.210;2022-12-18T14:59:29;-4.10;70.70
530;DHT22;251;48.704;9.210;2022-12-18T15:02:00;-3.90;69.70
530;DHT22;251;48.704;9.210;2022-12-18T15:04:30;-4.00;69.20
530;DHT22;251;48.704;9.210;2022-12-18T15:07:08;-3.90;69.80
530;DHT22;251;48.704;9.210;2022-12-18T15:09:37;-4.00;70.50
530;DHT22;251;48.704;9.210;2022-12-18T15:12:15;-4.10;71.20
530;DHT22;251;48.704;9.210;2022-12-18T15:14:46;-4.40;71.10
530;DHT22;251;48.704;9.210;2022-12-18T15:17:17;-4.20;70.50
530;DHT22;251;48.704;9.210;2022-12-18T15:19:45;-4.30;70.00
530;DHT22;251;48.704;9.210;2022-12-18T15:22:25;-4.20;71.00
530;DHT22;251;48.704;9.210;2022-12-18T15:24:53;-4.30;70.60
530;DHT22;251;48.704;9.210;2022-12-18T15:27:28;-4.20;70.40
530;DHT22;251;48.704;9.210;2022-12-18T15:30:18;-4.40;70.10
530;DHT22;251;48.704;9.210;2022-12-18T15:32:46;-4.40;69.80
530;DHT22;251;48.704;9.210;2022-12-18T15:35:18;-4.50;69.40
530;DHT22;251;48.704;9.210;2022-12-18T15:37:46;-4.40;69.60
530;DHT22;251;48.704;9.210;2022-12-18T15:40:14;-4.60;69.20
530;DHT22;251;48.704;9.210;2022-12-18T15:42:42;-4.60;69.20
530;DHT22;251;48.704;9.210;2022-12-18T15:45:28;-4.60;69.00
530;DHT22;251;48.704;9.210;2022-12-18T15:47:55;-4.80;68.60
530;DHT22;251;48.704;9.210;2022-12-18T15:50:22;-4.70;68.00
530;DHT22;251;48.704;9.210;2022-12-18T15:52:51;-4.90;67.70
530;DHT22;251;48.704;9.210;2022-12-18T15:55:20;-4.70;68.00
530;DHT22;251;48.704;9.210;2022-12-18T15:58:06;-5.00;67.40
530;DHT22;251;48.704;9.210;2022-12-18T16:00:35;-5.00;67.60
530;DHT22;251;48.704;9.210;2022-12-18T16:03:03;-4.90;67.10
530;DHT22;251;48.704;9.210;2022-12-18T16:05:31;-5.10;66.40
530;DHT22;251;48.704;9.210;2022-12-18T16:07:58;-5.10;65.90
530;DHT22;251;48.704;9.210;2022-12-18T16:10:25;-5.10;65.70
530;DHT22;251;48.704;9.210;2022-12-18T16:12:52;-5.20;66.00
530;DHT22;251;48.704;9.210;2022-12-18T16:15:20;-5.40;66.50
530;DHT22;251;48.704;9.210;2022-12-18T16:17:48;-5.20;66.60
530;DHT22;251;48.704;9.210;2022-12-18T16:20:17;-5.60;65.80
530;DHT22;251;48.704;9.210;2022-12-18T16:22:45;-5.50;66.00
530;DHT22;251;48.704;9.210;2022-12-18T16:25:17;-5.40;66.50
530;DHT22;251;48.704;9.210;2022-12-18T16:27:44;-5.70;66.40
530;DHT22;251;48.704;9.210;2022-12-18T16:30:13;-5.50;66.90
530;DHT22;251;48.704;9.210;2022-12-18T16:32:42;-5.50;67.20
530;DHT22;251;48.704;9.210;2022-12-18T16:35:10;-5.60;66.50
530;DHT22;251;48.704;9.210;2022-12-18T16:37:38;-5.60;66.80
530;DHT22;251;48.704;9.210;2022-12-18T16:40:07;-5.60;67.20
530;DHT22;251;48.704;9.210;2022-12-18T16:42:39;-5.70;67.30
530;DHT22;251;48.704;9.210;2022-12-18T16:45:09;-5.70;67.30
530;DHT22;251;48.704;9.210;2022-12-18T16:47:37;-5.90;67.30
530;DHT22;251;48.704;9.210;2022-12-18T16:50:07;-6.00;67.10
530;DHT22;251;48.704;9.210;2022-12-18T16:52:34;-5.80;67.50
530;DHT22;251;48.704;9.210;2022-12-18T16:55:01;-5.80;67.80
530;DHT22;251;48.704;9.210;2022-12-18T16:57:28;-6.10;67.80
530;DHT22;251;48.704;9.210;2022-12-18T16:59:55;-6.10;67.90
530;DHT22;251;48.704;9.210;2022-12-18T17:02:24;-5.80;67.60
530;DHT22;251;48.704;9.210;2022-12-18T17:04:52;-5.90;68.30
530;DHT22;251;48.704;9.210;2022-12-18T17:07:21;-6.10;68.30
530;DHT22;251;48.704;9.210;2022-12-18T17:09:48;-6.10;68.50
530;DHT22;251;48.704;9.210;2022-12-18T17:12:16;-5.70;67.80
530;DHT22;251;48.704;9.210;2022-12-18T17:14:42;-5.90;67.70
530;DHT22;251;48.704;9.210;2022-12-18T17:17:09;-5.80;68.40
530;DHT22;251;48.704;9.210;2022-12-18T17:19:36;-6.10;68.20
530;DHT22;251;48.704;9.210;2022-12-18T17:22:03;-5.80;69.20
530;DHT22;251;48.704;9.210;2022-12-18T17:24:31;-6.10;68.80